New Waterford, Canada
Current Conditions -  °F | °C
As of 9:00 PM on Wednesday 26 Nov 2014 (Local Time) from CYQY Reporting Station
Light Rain Light Rain  
Wind Chill: 31°   Ceiling: 8500
Heat Index: 37°   Visibility: 15mi
Dew Point: 34°   Wind: 9mph
Humidity: 87%   Direction: 20°NNE
Pressure: 30.15"   Gusts: NA
Location:  46.25°N, 60.09°W
Report Text: CYQY 270100Z 02008KT 15SM -RA SCT068 OVC085 03/01 A3015 RMK AC4AS4 PRESFR SLP213
Loading
Personal Weather Stations






























Interactive Weather Map New forecast layout! Learn more

10-Day Weather Forecast

Advertisements
Track Severe Weather on mobile